Terminal Aerodrome Forecast
Issued by NWS

Current Version | Previous Version | Graphics & Text | Print | Product List | Glossary On
Versions: 1 2 3 4 5 6 7 8 9 10 11 12 13 14 15 16 17 18 19 20
000
FTUS41 KPBZ 020400 AAA
TAFMGW
TAF AMD
KMGW 020412Z 0204/0224 21006KT P6SM OVC010
      TEMPO 0204/0207 3SM -SN BKN008
     FM020900 28008KT P6SM OVC015
     FM021500 30007KT P6SM BKN025
     FM022300 33005KT P6SM SCT250=

USA.gov is the U.S. government's official web portal to all federal, state and local government web resources and services.